createdAt,value
2022-10-17T00:00:16.931Z,61.09
2022-10-17T00:02:43.500Z,61.24
2022-10-17T00:05:11.860Z,61.31
2022-10-17T00:07:39.094Z,61.20
2022-10-17T00:10:07.373Z,61.58
2022-10-17T00:12:35.205Z,61.60
2022-10-17T00:15:04.744Z,61.62
2022-10-17T00:17:31.391Z,61.76
2022-10-17T00:20:01.702Z,62.39
2022-10-17T00:22:28.554Z,61.93
2022-10-17T00:24:55.151Z,62.08
2022-10-17T00:27:21.798Z,62.32
2022-10-17T00:29:52.466Z,63.16
2022-10-17T00:32:19.650Z,62.45
2022-10-17T00:34:46.809Z,62.76
2022-10-17T00:37:13.413Z,62.71
2022-10-17T00:39:39.944Z,62.69
2022-10-17T00:42:06.654Z,62.92
2022-10-17T00:44:33.138Z,62.77
2022-10-17T00:47:03.882Z,63.30
2022-10-17T00:49:34.467Z,63.43
2022-10-17T00:52:06.131Z,63.28
2022-10-17T00:54:35.518Z,63.11
2022-10-17T00:57:02.445Z,62.54
2022-10-17T00:59:32.387Z,63.21
2022-10-17T01:02:04.937Z,63.44
2022-10-17T01:04:32.056Z,62.24
2022-10-17T01:06:58.792Z,62.95
2022-10-17T01:09:27.339Z,63.17
2022-10-17T01:12:06.427Z,63.74
2022-10-17T01:14:52.264Z,63.70
2022-10-17T01:17:24.838Z,63.72
2022-10-17T01:20:12.921Z,63.09
2022-10-17T01:23:06.842Z,63.14
2022-10-17T01:25:57.708Z,64.07
2022-10-17T01:28:48.740Z,64.05
2022-10-17T01:31:20.051Z,63.00
2022-10-17T01:34:27.836Z,63.93
2022-10-17T01:37:04.461Z,64.44
2022-10-17T01:39:41.641Z,64.48
2022-10-17T01:42:24.363Z,64.00
2022-10-17T01:45:25.614Z,64.47
2022-10-17T01:47:54.581Z,63.67
2022-10-17T01:50:28.281Z,64.36
2022-10-17T01:53:19.815Z,64.26
2022-10-17T01:55:49.846Z,63.69
2022-10-17T01:58:23.226Z,63.48
2022-10-17T02:00:51.642Z,63.83
2022-10-17T02:03:21.198Z,64.15
2022-10-17T02:05:48.301Z,63.91
2022-10-17T02:08:25.612Z,65.24
2022-10-17T02:11:09.977Z,65.39
2022-10-17T02:14:01.165Z,64.74
2022-10-17T02:16:50.597Z,64.80
2022-10-17T02:19:22.866Z,64.90
2022-10-17T02:22:20.918Z,64.91
2022-10-17T02:24:52.651Z,64.05
2022-10-17T02:27:40.104Z,64.61
2022-10-17T02:30:23.595Z,64.88
2022-10-17T02:32:55.870Z,64.92
2022-10-17T02:35:25.407Z,64.49
2022-10-17T02:37:53.493Z,64.35
2022-10-17T02:40:22.942Z,64.96
2022-10-17T02:42:51.428Z,64.56
2022-10-17T02:45:19.443Z,64.53
2022-10-17T02:47:59.747Z,65.09
2022-10-17T02:51:01.692Z,64.49
2022-10-17T02:53:55.668Z,65.28
2022-10-17T02:56:24.853Z,64.16
2022-10-17T02:58:57.695Z,65.01
2022-10-17T03:01:25.045Z,64.39
2022-10-17T03:03:51.718Z,64.24
2022-10-17T03:06:18.284Z,64.40
2022-10-17T03:08:44.870Z,64.57
2022-10-17T03:11:11.442Z,64.24
2022-10-17T03:13:39.860Z,64.52
2022-10-17T03:16:06.837Z,64.42
2022-10-17T03:18:33.415Z,64.73
2022-10-17T03:20:59.970Z,64.58
2022-10-17T03:23:26.532Z,64.67
2022-10-17T03:25:53.053Z,64.80
2022-10-17T03:28:19.586Z,65.23
2022-10-17T03:30:46.198Z,65.06
2022-10-17T03:33:12.735Z,65.22
2022-10-17T03:35:42.880Z,65.04
2022-10-17T03:38:09.522Z,64.78
2022-10-17T03:40:36.101Z,64.94
2022-10-17T03:43:02.622Z,64.87
2022-10-17T03:45:29.226Z,64.75
2022-10-17T03:47:55.743Z,64.94
2022-10-17T03:50:22.292Z,64.97
2022-10-17T03:52:49.393Z,65.14
2022-10-17T03:55:16.924Z,65.24
2022-10-17T03:57:45.479Z,65.25
2022-10-17T04:00:12.915Z,65.63
2022-10-17T04:02:39.444Z,65.35
2022-10-17T04:05:06.632Z,65.07
2022-10-17T04:07:33.162Z,64.96
2022-10-17T04:09:59.743Z,65.11
2022-10-17T04:12:26.406Z,65.47
2022-10-17T04:14:53.257Z,65.27
2022-10-17T04:17:19.772Z,65.40
2022-10-17T04:19:46.407Z,65.53
2022-10-17T04:22:13.373Z,65.36
2022-10-17T04:24:39.918Z,65.49
2022-10-17T04:27:06.820Z,65.51
2022-10-17T04:29:33.530Z,65.50
2022-10-17T04:32:00.310Z,65.26
2022-10-17T04:34:26.936Z,65.26
2022-10-17T04:36:53.483Z,65.49
2022-10-17T04:39:20.155Z,65.37
2022-10-17T04:41:46.727Z,65.51
2022-10-17T04:44:13.340Z,65.63
2022-10-17T04:46:40.025Z,65.66
2022-10-17T04:49:06.637Z,65.53
2022-10-17T04:51:33.171Z,65.49
2022-10-17T04:53:59.799Z,65.74
2022-10-17T04:56:26.385Z,65.55
2022-10-17T04:58:53.001Z,65.70
2022-10-17T05:01:23.769Z,66.15
2022-10-17T05:03:50.358Z,66.02
2022-10-17T05:06:19.780Z,65.64
2022-10-17T05:08:46.857Z,65.95
2022-10-17T05:11:23.093Z,66.23
2022-10-17T05:14:00.346Z,65.78
2022-10-17T05:16:28.142Z,65.62
2022-10-17T05:18:56.697Z,65.44
2022-10-17T05:21:25.471Z,65.57
2022-10-17T05:23:52.650Z,65.62
2022-10-17T05:26:19.676Z,65.56
2022-10-17T05:28:46.433Z,65.55
2022-10-17T05:31:13.829Z,65.20
2022-10-17T05:33:40.507Z,65.30
2022-10-17T05:36:08.200Z,65.70
2022-10-17T05:38:35.131Z,65.90
2022-10-17T05:41:04.500Z,65.96
2022-10-17T05:43:32.062Z,65.47
2022-10-17T05:45:58.765Z,65.58
2022-10-17T05:48:25.458Z,65.53
2022-10-17T05:50:59.387Z,66.29
2022-10-17T05:53:26.054Z,65.55
2022-10-17T05:56:00.439Z,66.42
2022-10-17T06:01:14.699Z,65.65
2022-10-17T06:03:41.267Z,66.06
2022-10-17T06:06:10.455Z,65.93
2022-10-17T06:08:37.436Z,66.07
2022-10-17T06:11:07.496Z,65.74
2022-10-17T06:13:36.652Z,65.71
2022-10-17T06:16:03.242Z,65.69
2022-10-17T06:18:29.959Z,65.93
2022-10-17T06:21:05.911Z,66.24
2022-10-17T06:23:32.914Z,65.93
2022-10-17T06:26:01.142Z,66.24
2022-10-17T06:28:28.037Z,66.00
2022-10-17T06:30:55.181Z,66.25
2022-10-17T06:33:23.301Z,65.76
2022-10-17T06:35:56.481Z,66.53
2022-10-17T06:38:23.463Z,65.95
2022-10-17T06:40:50.140Z,65.88
2022-10-17T06:43:16.799Z,66.26
2022-10-17T06:45:45.718Z,66.10
2022-10-17T06:48:12.291Z,66.13
2022-10-17T06:50:38.927Z,65.91
2022-10-17T06:53:05.482Z,66.11
2022-10-17T06:55:32.660Z,65.97
2022-10-17T06:57:59.211Z,65.97
2022-10-17T07:00:26.915Z,65.89
2022-10-17T07:02:53.492Z,65.72
2022-10-17T07:05:20.128Z,66.00
2022-10-17T07:07:48.537Z,65.88
2022-10-17T07:10:18.383Z,65.55
2022-10-17T07:12:45.905Z,65.94
2022-10-17T07:15:12.678Z,65.68
2022-10-17T07:17:39.557Z,65.64
2022-10-17T07:20:06.694Z,65.70
2022-10-17T07:22:33.312Z,65.61
2022-10-17T07:24:59.872Z,65.88
2022-10-17T07:27:26.585Z,65.41
2022-10-17T07:29:53.295Z,65.40
2022-10-17T07:32:19.881Z,65.28
2022-10-17T07:34:46.413Z,65.50
2022-10-17T07:37:13.493Z,65.82
2022-10-17T07:39:40.116Z,65.51
2022-10-17T07:42:07.786Z,65.60
2022-10-17T07:44:35.589Z,65.78
2022-10-17T07:47:02.489Z,65.61
2022-10-17T07:49:29.346Z,65.73
2022-10-17T07:51:56.002Z,65.39
2022-10-17T07:54:22.747Z,65.64
2022-10-17T07:56:50.795Z,65.74
2022-10-17T07:59:20.545Z,65.76
2022-10-17T08:01:47.133Z,65.59
2022-10-17T08:04:13.780Z,65.60
2022-10-17T08:06:40.365Z,65.50
2022-10-17T08:09:07.002Z,65.46
2022-10-17T08:11:33.698Z,65.54
2022-10-17T08:14:00.276Z,65.19
2022-10-17T08:16:26.875Z,65.30
2022-10-17T08:18:53.909Z,65.55
2022-10-17T08:21:20.582Z,65.29
2022-10-17T08:23:47.119Z,65.28
2022-10-17T08:26:17.304Z,65.05
2022-10-17T08:28:44.379Z,64.99
2022-10-17T08:31:13.680Z,65.08
2022-10-17T08:33:41.520Z,64.99
2022-10-17T08:36:09.051Z,64.92
2022-10-17T08:38:38.339Z,65.17
2022-10-17T08:41:45.738Z,65.17
2022-10-17T08:44:33.439Z,64.88
2022-10-17T08:47:04.400Z,64.75
2022-10-17T08:49:47.021Z,64.83
2022-10-17T08:52:35.247Z,65.25
2022-10-17T08:55:01.965Z,64.67
2022-10-17T08:57:29.335Z,64.87
2022-10-17T08:59:57.014Z,64.83
2022-10-17T09:02:54.476Z,65.13
2022-10-17T09:05:30.547Z,64.94
2022-10-17T09:08:06.355Z,64.86
2022-10-17T09:10:47.420Z,64.84
2022-10-17T09:13:25.486Z,64.69
2022-10-17T09:15:58.019Z,64.62
2022-10-17T09:18:31.869Z,64.09
2022-10-17T09:21:19.681Z,64.15
2022-10-17T09:24:03.969Z,64.15
2022-10-17T09:26:39.233Z,63.99
2022-10-17T09:29:17.708Z,64.06
2022-10-17T09:31:51.243Z,64.20
2022-10-17T09:34:18.040Z,64.56
2022-10-17T09:36:44.637Z,64.62
2022-10-17T09:39:18.825Z,64.29
2022-10-17T09:41:57.037Z,63.88
2022-10-17T09:44:31.267Z,63.37
2022-10-17T09:47:26.438Z,63.21
2022-10-17T09:49:53.038Z,63.04
2022-10-17T09:52:27.518Z,63.14
2022-10-17T09:54:59.282Z,62.87
2022-10-17T09:57:26.434Z,63.03
2022-10-17T10:00:01.887Z,62.55
2022-10-17T10:02:31.437Z,62.52
2022-10-17T10:05:16.306Z,62.19
2022-10-17T10:07:45.749Z,62.31
2022-10-17T10:10:28.125Z,62.66
2022-10-17T10:13:18.178Z,62.98
2022-10-17T10:15:47.784Z,62.98
2022-10-17T10:18:26.685Z,63.37
2022-10-17T10:21:16.330Z,63.63
2022-10-17T10:23:45.328Z,63.79
2022-10-17T10:26:21.584Z,64.12
2022-10-17T10:28:56.254Z,63.79
2022-10-17T10:31:40.918Z,63.63
2022-10-17T10:34:19.388Z,63.26
2022-10-17T10:36:55.221Z,63.65
2022-10-17T10:39:43.786Z,63.41
2022-10-17T10:42:30.073Z,63.38
2022-10-17T10:45:48.001Z,63.41
2022-10-17T10:48:21.378Z,62.99
2022-10-17T10:50:47.831Z,62.88
2022-10-17T10:53:36.228Z,63.26
2022-10-17T10:56:21.632Z,63.12
2022-10-17T10:59:03.430Z,62.89
2022-10-17T11:01:41.487Z,63.27
2022-10-17T11:04:45.836Z,63.29
2022-10-17T11:07:30.630Z,63.18
2022-10-17T11:10:00.318Z,63.13
2022-10-17T11:13:00.614Z,63.35
2022-10-17T11:15:52.628Z,63.76
2022-10-17T11:18:27.765Z,63.43
2022-10-17T11:21:00.270Z,63.37
2022-10-17T11:23:42.726Z,63.75
2022-10-17T11:26:26.055Z,63.53
2022-10-17T11:28:54.478Z,63.28
2022-10-17T11:31:24.048Z,63.55
2022-10-17T11:34:15.006Z,63.93
2022-10-17T11:36:44.707Z,63.99
2022-10-17T11:39:14.048Z,63.62
2022-10-17T11:41:54.172Z,63.71
2022-10-17T11:44:36.229Z,64.21
2022-10-17T11:47:24.200Z,63.73
2022-10-17T11:53:13.293Z,63.89
2022-10-17T11:55:41.101Z,63.98
2022-10-17T11:58:26.783Z,63.98
2022-10-17T12:00:53.309Z,64.10
2022-10-17T12:03:19.819Z,64.19
2022-10-17T12:05:58.177Z,64.28
2022-10-17T12:08:30.614Z,64.30
2022-10-17T12:11:20.987Z,64.20
2022-10-17T12:13:49.998Z,64.02
2022-10-17T12:16:19.813Z,63.86
2022-10-17T12:19:10.620Z,63.28
2022-10-17T12:21:57.258Z,63.82
2022-10-17T12:24:35.835Z,63.55
2022-10-17T12:27:22.141Z,64.00
2022-10-17T12:29:49.192Z,63.52
2022-10-17T12:32:15.892Z,63.57
2022-10-17T12:34:54.050Z,64.18
2022-10-17T12:37:45.368Z,64.21
2022-10-17T12:40:36.867Z,64.42
2022-10-17T12:43:15.847Z,64.55
2022-10-17T12:45:56.279Z,65.03
2022-10-17T12:48:38.330Z,65.40
2022-10-17T12:51:34.693Z,65.28
2022-10-17T12:53:59.512Z,64.83
2022-10-17T12:56:32.062Z,64.75
2022-10-17T12:58:59.260Z,64.50
2022-10-17T13:01:31.016Z,65.11
2022-10-17T13:04:02.687Z,64.66
2022-10-17T13:06:31.518Z,64.29
2022-10-17T13:09:05.630Z,64.54
2022-10-17T13:11:34.969Z,64.38
2022-10-17T13:14:09.220Z,64.55
2022-10-17T13:16:38.996Z,64.77
2022-10-17T13:19:17.624Z,65.10
2022-10-17T13:22:06.432Z,65.14
2022-10-17T13:24:39.388Z,65.08
2022-10-17T13:27:21.303Z,64.91
2022-10-17T13:29:47.875Z,64.95
2022-10-17T13:32:14.391Z,65.14
2022-10-17T13:34:40.995Z,65.22
2022-10-17T13:37:13.753Z,65.64
2022-10-17T13:40:00.256Z,65.83
2022-10-17T13:42:40.588Z,65.96
2022-10-17T13:45:19.483Z,66.17
2022-10-17T13:47:46.274Z,65.58
2022-10-17T13:50:43.186Z,66.20
2022-10-17T13:53:18.599Z,66.19
2022-10-17T13:56:22.915Z,66.06
2022-10-17T13:58:49.449Z,65.80
2022-10-17T14:01:17.596Z,65.70
2022-10-17T14:03:48.646Z,65.67
2022-10-17T14:06:15.642Z,65.78
2022-10-17T14:08:54.181Z,66.28
2022-10-17T14:11:30.935Z,66.22
2022-10-17T14:13:59.008Z,65.92
2022-10-17T14:16:27.712Z,65.76
2022-10-17T14:18:55.620Z,66.09
2022-10-17T14:21:42.970Z,66.20
2022-10-17T14:24:37.068Z,66.91
2022-10-17T14:27:03.668Z,65.94
2022-10-17T14:29:32.910Z,66.24
2022-10-17T14:32:10.503Z,66.75
2022-10-17T14:34:40.692Z,66.60
2022-10-17T14:37:22.476Z,66.61
2022-10-17T14:39:51.088Z,66.28
2022-10-17T14:42:20.606Z,66.75
2022-10-17T14:44:50.814Z,67.03
2022-10-17T14:47:42.156Z,66.76
2022-10-17T14:50:20.341Z,66.54
2022-10-17T14:53:06.775Z,67.29
2022-10-17T14:55:35.986Z,66.71
2022-10-17T14:58:16.620Z,67.36
2022-10-17T15:00:43.176Z,66.76
2022-10-17T15:03:09.710Z,66.92
2022-10-17T15:05:36.333Z,66.90
2022-10-17T15:08:02.886Z,67.26
2022-10-17T15:10:35.808Z,67.66
2022-10-17T15:13:27.044Z,67.21
2022-10-17T15:15:52.249Z,67.13
2022-10-17T15:18:19.523Z,67.39
2022-10-17T15:20:46.122Z,67.18
2022-10-17T15:23:12.722Z,67.48
2022-10-17T15:25:39.829Z,67.39
2022-10-17T15:28:06.359Z,67.56
2022-10-17T15:30:36.420Z,67.57
2022-10-17T15:33:03.103Z,67.34
2022-10-17T15:35:30.397Z,67.37
2022-10-17T15:37:57.012Z,67.48
2022-10-17T15:40:29.259Z,67.85
2022-10-17T15:42:56.467Z,67.44
2022-10-17T15:45:23.709Z,67.69
2022-10-17T15:47:57.024Z,68.00
2022-10-17T15:50:23.582Z,67.48
2022-10-17T15:52:53.183Z,67.75
2022-10-17T15:55:19.996Z,67.68
2022-10-17T15:57:47.944Z,67.79
2022-10-17T16:00:23.825Z,68.85
2022-10-17T16:02:51.028Z,68.27
2022-10-17T16:05:25.761Z,68.66
2022-10-17T16:07:56.849Z,68.57
2022-10-17T16:10:26.598Z,68.46
2022-10-17T16:12:53.942Z,68.36
2022-10-17T16:15:24.029Z,68.83
2022-10-17T16:17:56.800Z,69.33
2022-10-17T16:20:25.675Z,69.02
2022-10-17T16:22:56.322Z,69.09
2022-10-17T16:25:27.026Z,69.25
2022-10-17T16:27:57.538Z,69.45
2022-10-17T16:30:27.158Z,69.36
2022-10-17T16:32:55.179Z,69.15
2022-10-17T16:35:25.356Z,69.53
2022-10-17T16:37:52.241Z,69.36
2022-10-17T16:40:19.544Z,69.31
2022-10-17T16:42:46.658Z,69.10
2022-10-17T16:45:22.313Z,69.93
2022-10-17T16:47:50.830Z,69.37
2022-10-17T16:50:18.056Z,68.99
2022-10-17T16:52:44.891Z,69.42
2022-10-17T16:55:12.092Z,69.14
2022-10-17T16:57:39.173Z,69.38
2022-10-17T17:00:07.738Z,69.64
2022-10-17T17:02:35.000Z,69.55
2022-10-17T17:05:01.685Z,69.52
2022-10-17T17:07:29.902Z,69.58
2022-10-17T17:09:56.919Z,69.70
2022-10-17T17:12:23.763Z,69.91
2022-10-17T17:14:50.335Z,69.86
2022-10-17T17:17:30.137Z,69.77
2022-10-17T17:20:04.045Z,69.86
2022-10-17T17:22:30.608Z,69.89
2022-10-17T17:24:57.220Z,69.78
2022-10-17T17:27:25.192Z,69.97
2022-10-17T17:29:51.782Z,69.76
2022-10-17T17:32:18.294Z,70.17
2022-10-17T17:34:44.843Z,70.05
2022-10-17T17:37:11.543Z,69.96
2022-10-17T17:39:38.330Z,70.21
2022-10-17T17:42:04.971Z,70.00
2022-10-17T17:44:32.028Z,70.07
2022-10-17T17:46:58.746Z,70.06
2022-10-17T17:49:25.286Z,70.05
2022-10-17T17:51:51.868Z,69.75
2022-10-17T17:54:18.444Z,69.86
2022-10-17T17:56:45.004Z,70.01
2022-10-17T17:59:13.070Z,69.78
2022-10-17T18:01:39.829Z,69.75
2022-10-17T18:04:08.813Z,70.01
2022-10-17T18:06:37.424Z,70.00
2022-10-17T18:09:05.755Z,70.06
2022-10-17T18:11:32.915Z,69.97
2022-10-17T18:14:02.293Z,69.83
2022-10-17T18:16:31.221Z,70.22
2022-10-17T18:19:03.985Z,70.02
2022-10-17T18:21:33.452Z,69.80
2022-10-17T18:24:00.309Z,69.70
2022-10-17T18:26:27.849Z,69.79
2022-10-17T18:28:54.409Z,69.99
2022-10-17T18:31:24.372Z,70.13
2022-10-17T18:33:53.018Z,70.23
2022-10-17T18:36:21.188Z,70.25
2022-10-17T18:38:48.449Z,70.31
2022-10-17T18:41:17.216Z,70.30
2022-10-17T18:43:45.778Z,70.37
2022-10-17T18:46:16.260Z,70.45
2022-10-17T18:48:44.630Z,70.08
2022-10-17T18:51:12.290Z,70.31
2022-10-17T18:53:45.696Z,70.45
2022-10-17T18:56:13.197Z,70.35
2022-10-17T18:58:40.948Z,70.17
2022-10-17T19:01:12.161Z,70.76
2022-10-17T19:03:38.692Z,70.49
2022-10-17T19:06:07.524Z,70.47
2022-10-17T19:08:35.664Z,70.45
2022-10-17T19:11:10.169Z,70.77
2022-10-17T19:13:36.877Z,70.37
2022-10-17T19:16:08.221Z,71.04
2022-10-17T19:18:35.943Z,70.39
2022-10-17T19:21:09.284Z,70.90
2022-10-17T19:23:36.779Z,70.47
2022-10-17T19:26:11.417Z,71.24
2022-10-17T19:28:39.728Z,70.88
2022-10-17T19:31:06.835Z,70.70
2022-10-17T19:33:34.442Z,70.92
2022-10-17T19:36:04.279Z,71.19
2022-10-17T19:38:31.230Z,70.78
2022-10-17T19:40:57.808Z,70.69
2022-10-17T19:43:24.367Z,70.76
2022-10-17T19:45:59.637Z,71.58
2022-10-17T19:48:27.263Z,71.09
2022-10-17T19:50:54.714Z,70.91
2022-10-17T19:53:23.985Z,71.29
2022-10-17T19:55:51.343Z,70.86
2022-10-17T19:58:17.838Z,70.61
2022-10-17T20:00:52.508Z,71.30
2022-10-17T20:03:19.770Z,70.79
2022-10-17T20:05:47.147Z,70.57
2022-10-17T20:08:14.910Z,70.84
2022-10-17T20:10:42.169Z,70.70
2022-10-17T20:13:09.039Z,70.70
2022-10-17T20:15:36.254Z,70.65
2022-10-17T20:18:04.065Z,70.69
2022-10-17T20:20:30.698Z,70.69
2022-10-17T20:22:57.412Z,70.95
2022-10-17T20:25:24.429Z,70.61
2022-10-17T20:27:51.009Z,71.02
2022-10-17T20:30:17.614Z,70.71
2022-10-17T20:32:44.147Z,70.72
2022-10-17T20:35:10.940Z,70.90
2022-10-17T20:37:41.584Z,71.05
2022-10-17T20:40:34.162Z,70.76
2022-10-17T20:42:56.450Z,70.78
2022-10-17T20:45:37.455Z,70.61
2022-10-17T20:48:15.577Z,70.96
2022-10-17T20:50:43.346Z,70.89
2022-10-17T20:53:35.621Z,70.96
2022-10-17T20:56:08.784Z,71.08
2022-10-17T20:58:36.014Z,70.62
2022-10-17T21:01:10.519Z,71.38
2022-10-17T21:03:41.159Z,70.60
2022-10-17T21:06:11.425Z,71.01
2022-10-17T21:08:38.189Z,70.79
2022-10-17T21:11:13.279Z,71.52
2022-10-17T21:13:40.240Z,70.84
2022-10-17T21:16:12.047Z,71.15
2022-10-17T21:18:39.304Z,71.10
2022-10-17T21:21:24.864Z,71.56
2022-10-17T21:23:52.880Z,70.73
2022-10-17T21:26:20.767Z,70.89
2022-10-17T21:28:48.749Z,71.09
2022-10-17T21:31:24.206Z,71.62
2022-10-17T21:33:53.528Z,71.08
2022-10-17T21:36:20.857Z,71.28
2022-10-17T21:38:49.004Z,71.11
2022-10-17T21:41:19.462Z,71.32
2022-10-17T21:43:46.532Z,70.95
2022-10-17T21:46:16.158Z,71.50
2022-10-17T21:48:43.864Z,71.19
2022-10-17T21:51:13.672Z,71.33
2022-10-17T21:53:40.910Z,71.16
2022-10-17T21:56:12.470Z,71.47
2022-10-17T21:58:39.422Z,71.27
2022-10-17T22:01:13.669Z,71.55
2022-10-17T22:03:45.854Z,71.13
2022-10-17T22:06:38.808Z,71.19
2022-10-17T22:09:04.605Z,71.11
2022-10-17T22:11:33.943Z,71.34
2022-10-17T22:14:15.295Z,72.07
2022-10-17T22:16:44.350Z,71.45
2022-10-17T22:19:12.709Z,71.59
2022-10-17T22:21:40.040Z,71.31
2022-10-17T22:24:10.979Z,71.63
2022-10-17T22:26:38.827Z,71.52
2022-10-17T22:29:07.126Z,71.69
2022-10-17T22:31:34.486Z,71.61
2022-10-17T22:34:01.076Z,71.35
2022-10-17T22:36:27.753Z,71.62
2022-10-17T22:38:54.518Z,71.71
2022-10-17T22:41:21.167Z,71.75
2022-10-17T22:43:47.705Z,71.60
2022-10-17T22:46:17.125Z,71.83
2022-10-17T22:48:43.922Z,71.77
2022-10-17T22:51:11.096Z,71.97
2022-10-17T22:53:38.089Z,71.65
2022-10-17T22:56:14.346Z,72.40
2022-10-17T22:58:41.167Z,71.73
2022-10-17T23:01:10.481Z,72.01
2022-10-17T23:03:37.077Z,72.02
2022-10-17T23:06:04.351Z,71.89
2022-10-17T23:08:31.099Z,72.09
2022-10-17T23:10:58.141Z,72.02
2022-10-17T23:13:24.765Z,71.88
2022-10-17T23:15:53.182Z,71.92
2022-10-17T23:18:20.858Z,71.88
2022-10-17T23:20:47.985Z,71.97
2022-10-17T23:23:15.365Z,72.00
2022-10-17T23:25:42.425Z,71.63
2022-10-17T23:28:09.325Z,72.06
2022-10-17T23:30:37.401Z,71.91
2022-10-17T23:33:04.590Z,72.10
2022-10-17T23:35:31.681Z,71.77
2022-10-17T23:37:58.348Z,71.66
2022-10-17T23:40:25.077Z,72.00
2022-10-17T23:42:51.610Z,71.75
2022-10-17T23:45:19.343Z,71.79
2022-10-17T23:47:46.077Z,71.88
2022-10-17T23:50:14.084Z,71.81
2022-10-17T23:52:40.753Z,71.67
2022-10-17T23:55:08.489Z,71.80
2022-10-17T23:57:35.403Z,71.86
